createdAt,value
2023-01-13T00:03:13.121Z,1.02
2023-01-13T00:06:21.587Z,1.38
2023-01-13T00:09:23.160Z,1.00
2023-01-13T00:12:24.701Z,1.10
2023-01-13T00:15:26.264Z,1.40
2023-01-13T00:18:28.335Z,1.30
2023-01-13T00:21:29.838Z,1.15
2023-01-13T00:24:31.460Z,1.00
2023-01-13T00:27:33.586Z,1.27
2023-01-13T00:30:38.484Z,1.10
2023-01-13T00:33:40.502Z,0.90
2023-01-13T00:36:42.031Z,1.20
2023-01-13T00:39:43.656Z,1.07
2023-01-13T00:43:03.729Z,1.10
2023-01-13T00:46:07.807Z,1.20
2023-01-13T00:49:09.360Z,1.20
2023-01-13T00:52:12.090Z,1.15
2023-01-13T00:55:13.645Z,1.10
2023-01-13T00:58:15.443Z,0.90
2023-01-13T01:01:19.635Z,1.20
2023-01-13T01:04:21.249Z,1.10
2023-01-13T01:07:22.775Z,1.25
2023-01-13T01:10:24.341Z,0.93
2023-01-13T01:13:25.867Z,1.00
2023-01-13T01:16:30.384Z,1.03
2023-01-13T01:19:32.037Z,1.10
2023-01-13T01:22:33.638Z,1.17
2023-01-13T01:25:35.132Z,1.02
2023-01-13T01:28:36.760Z,1.20
2023-01-13T01:31:38.367Z,1.00
2023-01-13T01:34:39.932Z,1.10
2023-01-13T01:37:41.444Z,1.30
2023-01-13T01:40:42.967Z,1.50
2023-01-13T01:44:08.976Z,1.23
2023-01-13T01:47:14.398Z,1.30
2023-01-13T01:50:17.441Z,1.38
2023-01-13T01:53:24.135Z,1.63
2023-01-13T01:56:25.760Z,1.10
2023-01-13T01:59:32.516Z,1.05
2023-01-13T02:02:34.330Z,1.30
2023-01-13T02:05:36.473Z,1.30
2023-01-13T02:08:40.283Z,1.30
2023-01-13T02:12:00.358Z,1.33
2023-01-13T02:15:09.073Z,1.38
2023-01-13T02:18:32.464Z,1.35
2023-01-13T02:21:51.106Z,1.20
2023-01-13T02:25:39.359Z,1.27
2023-01-13T02:29:25.771Z,1.00
2023-01-13T02:32:47.195Z,1.20
2023-01-13T02:36:01.421Z,1.23
2023-01-13T02:39:14.030Z,1.20
2023-01-13T02:42:44.302Z,1.50
2023-01-13T02:45:57.478Z,1.13
2023-01-13T02:49:04.889Z,1.30
2023-01-13T02:52:12.299Z,1.10
2023-01-13T02:55:18.701Z,1.38
2023-01-13T02:58:25.101Z,1.10
2023-01-13T03:01:27.014Z,1.20
2023-01-13T03:04:46.670Z,1.10
2023-01-13T03:08:09.172Z,0.93
2023-01-13T03:11:14.328Z,1.00
2023-01-13T03:14:30.367Z,1.40
2023-01-13T03:17:43.909Z,0.98
2023-01-13T03:21:03.059Z,1.20
2023-01-13T03:24:16.984Z,1.15
2023-01-13T03:27:25.561Z,1.30
2023-01-13T03:30:38.811Z,1.58
2023-01-13T03:33:51.387Z,1.08
2023-01-13T03:40:03.834Z,1.20
2023-01-13T03:43:30.387Z,0.90
2023-01-13T03:46:42.317Z,1.08
2023-01-13T03:50:10.010Z,0.93
2023-01-13T03:53:18.640Z,1.10
2023-01-13T03:56:27.317Z,1.00
2023-01-13T03:59:37.942Z,1.00
2023-01-13T04:02:52.203Z,1.58
2023-01-13T04:05:59.848Z,0.90
2023-01-13T04:09:33.299Z,1.02
2023-01-13T04:13:01.101Z,1.00
2023-01-13T04:16:05.674Z,0.80
2023-01-13T04:19:07.165Z,0.90
2023-01-13T04:22:08.645Z,0.90
2023-01-13T04:25:11.451Z,0.80
2023-01-13T04:28:13.868Z,1.08
2023-01-13T04:31:15.375Z,1.10
2023-01-13T04:34:16.866Z,0.87
2023-01-13T04:37:18.517Z,0.93
2023-01-13T04:40:19.941Z,1.13
2023-01-13T04:43:21.399Z,1.00
2023-01-13T04:46:22.904Z,0.73
2023-01-13T04:49:24.435Z,1.00
2023-01-13T04:52:25.931Z,0.90
2023-01-13T04:55:27.957Z,0.90
2023-01-13T04:58:29.434Z,1.00
2023-01-13T05:01:31.075Z,1.00
2023-01-13T05:04:32.553Z,0.95
2023-01-13T05:07:34.009Z,0.90
2023-01-13T05:10:35.461Z,0.82
2023-01-13T05:13:55.605Z,1.43
2023-01-13T05:17:06.170Z,0.95
2023-01-13T05:20:08.755Z,0.80
2023-01-13T05:23:28.911Z,0.80
2023-01-13T05:26:30.303Z,0.77
2023-01-13T05:29:31.684Z,0.80
2023-01-13T05:32:33.256Z,0.77
2023-01-13T05:35:34.702Z,0.90
2023-01-13T05:38:36.150Z,0.70
2023-01-13T05:41:56.310Z,0.67
2023-01-13T05:44:57.751Z,0.75
2023-01-13T05:47:59.168Z,0.77
2023-01-13T05:51:01.800Z,0.70
2023-01-13T05:54:03.552Z,0.75
2023-01-13T05:57:04.960Z,0.73
2023-01-13T06:00:07.129Z,0.80
2023-01-13T06:03:16.099Z,0.70
2023-01-13T06:06:17.673Z,0.63
2023-01-13T06:09:20.966Z,0.70
2023-01-13T06:12:22.395Z,0.70
2023-01-13T06:15:24.463Z,0.60
2023-01-13T06:18:26.447Z,0.60
2023-01-13T06:21:27.842Z,0.75
2023-01-13T06:24:29.346Z,0.70
2023-01-13T06:27:31.058Z,0.80
2023-01-13T06:30:40.017Z,0.50
2023-01-13T06:33:49.303Z,0.73
2023-01-13T06:36:53.722Z,0.60
2023-01-13T06:39:58.624Z,0.47
2023-01-13T06:43:16.659Z,0.75
2023-01-13T06:46:18.743Z,0.82
2023-01-13T06:49:21.732Z,0.80
2023-01-13T06:52:23.484Z,0.70
2023-01-13T06:55:25.292Z,0.73
2023-01-13T06:58:26.821Z,0.80
2023-01-13T07:01:28.356Z,1.63
2023-01-13T07:04:29.860Z,0.75
2023-01-13T07:07:32.615Z,0.80
2023-01-13T07:10:34.865Z,0.63
2023-01-13T07:16:56.555Z,0.80
2023-01-13T07:19:58.004Z,1.00
2023-01-13T07:22:59.415Z,0.80
2023-01-13T07:26:01.170Z,0.82
2023-01-13T07:29:02.645Z,0.95
2023-01-13T07:32:04.340Z,1.10
2023-01-13T07:35:06.308Z,0.80
2023-01-13T07:38:08.364Z,1.00
2023-01-13T07:41:31.655Z,1.15
2023-01-13T07:44:33.447Z,0.90
2023-01-13T07:47:34.923Z,0.93
2023-01-13T07:50:36.407Z,0.90
2023-01-13T07:53:38.789Z,1.17
2023-01-13T07:59:41.713Z,0.90
2023-01-13T08:02:43.251Z,1.35
2023-01-13T08:05:44.754Z,1.40
2023-01-13T08:08:46.322Z,1.00
2023-01-13T08:12:07.727Z,0.90
2023-01-13T08:15:10.127Z,1.10
2023-01-13T08:21:14.595Z,1.40
2023-01-13T08:24:16.024Z,1.27
2023-01-13T08:27:17.550Z,1.00
2023-01-13T08:30:19.257Z,1.30
2023-01-13T08:33:21.000Z,1.10
2023-01-13T08:36:22.541Z,1.02
2023-01-13T08:39:25.097Z,1.27
2023-01-13T08:42:27.713Z,1.38
2023-01-13T08:45:29.292Z,1.30
2023-01-13T08:48:31.635Z,1.77
2023-01-13T08:51:33.803Z,1.55
2023-01-13T08:54:38.553Z,1.08
2023-01-13T08:57:40.185Z,2.10
2023-01-13T09:00:42.205Z,2.88
2023-01-13T09:03:43.930Z,3.00
2023-01-13T09:06:46.204Z,3.30
2023-01-13T09:09:47.924Z,4.68
2023-01-13T09:13:08.133Z,1.50
2023-01-13T09:16:09.586Z,2.08
2023-01-13T09:19:11.045Z,2.00
2023-01-13T09:22:18.307Z,2.10
2023-01-13T09:25:19.817Z,2.15
2023-01-13T09:28:21.214Z,2.13
2023-01-13T09:31:22.620Z,2.78
2023-01-13T09:34:43.173Z,2.47
2023-01-13T09:37:44.629Z,2.50
2023-01-13T09:40:48.895Z,3.08
2023-01-13T09:43:56.723Z,2.28
2023-01-13T09:47:04.032Z,1.90
2023-01-13T09:50:22.227Z,2.00
2023-01-13T09:53:34.140Z,1.50
2023-01-13T09:56:35.882Z,1.77
2023-01-13T09:59:38.192Z,2.00
2023-01-13T10:03:08.267Z,1.70
2023-01-13T10:06:27.895Z,1.90
2023-01-13T10:09:51.384Z,1.70
2023-01-13T10:13:11.517Z,1.60
2023-01-13T10:16:46.557Z,2.33
2023-01-13T10:19:54.343Z,1.10
2023-01-13T10:23:14.293Z,1.25
2023-01-13T10:26:26.840Z,0.80
2023-01-13T10:29:30.111Z,0.98
2023-01-13T10:32:31.630Z,0.98
2023-01-13T10:35:56.661Z,2.27
2023-01-13T10:39:09.071Z,2.40
2023-01-13T10:42:16.860Z,0.95
2023-01-13T10:45:25.139Z,0.70
2023-01-13T10:48:57.072Z,0.90
2023-01-13T10:51:58.939Z,1.30
2023-01-13T10:55:01.223Z,0.85
2023-01-13T10:58:20.947Z,1.02
2023-01-13T11:01:27.274Z,1.60
2023-01-13T11:05:03.322Z,0.82
2023-01-13T11:08:05.107Z,1.10
2023-01-13T11:11:26.160Z,0.90
2023-01-13T11:14:42.153Z,0.98
2023-01-13T11:17:53.557Z,1.20
2023-01-13T11:20:56.628Z,0.85
2023-01-13T11:24:10.705Z,1.23
2023-01-13T11:27:39.843Z,1.10
2023-01-13T11:30:54.189Z,1.13
2023-01-13T11:34:23.657Z,0.90
2023-01-13T11:37:38.028Z,0.80
2023-01-13T11:40:46.895Z,1.02
2023-01-13T11:43:59.133Z,0.98
2023-01-13T11:47:01.271Z,1.00
2023-01-13T11:50:04.061Z,0.90
2023-01-13T11:53:29.055Z,1.05
2023-01-13T11:56:52.629Z,1.17
2023-01-13T12:00:18.153Z,0.90
2023-01-13T12:03:44.487Z,1.27
2023-01-13T12:06:49.339Z,1.30
2023-01-13T12:09:50.665Z,1.30
2023-01-13T12:13:20.727Z,2.08
2023-01-13T12:16:31.727Z,1.40
2023-01-13T12:19:33.292Z,1.52
2023-01-13T12:22:36.989Z,4.13
2023-01-13T12:25:46.387Z,1.23
2023-01-13T12:29:00.636Z,1.40
2023-01-13T12:32:05.049Z,1.52
2023-01-13T12:35:25.857Z,1.20
2023-01-13T12:38:34.481Z,1.70
2023-01-13T12:42:10.425Z,1.75
2023-01-13T12:45:11.795Z,1.23
2023-01-13T12:48:52.874Z,1.50
2023-01-13T12:51:54.552Z,1.17
2023-01-13T12:54:55.907Z,1.55
2023-01-13T12:58:06.068Z,1.57
2023-01-13T13:01:13.365Z,1.60
2023-01-13T13:04:20.520Z,1.40
2023-01-13T13:07:30.730Z,1.23
2023-01-13T13:10:37.458Z,1.17
2023-01-13T13:13:47.303Z,1.85
2023-01-13T13:16:51.738Z,1.25
2023-01-13T13:19:53.652Z,2.40
2023-01-13T13:22:55.095Z,2.50
2023-01-13T13:26:33.739Z,2.63
2023-01-13T13:29:47.783Z,1.63
2023-01-13T13:33:39.235Z,1.73
2023-01-13T13:37:03.621Z,1.50
2023-01-13T13:40:28.960Z,2.13
2023-01-13T13:43:59.330Z,1.95
2023-01-13T13:47:03.551Z,2.08
2023-01-13T13:50:14.350Z,1.40
2023-01-13T13:53:19.564Z,1.45
2023-01-13T13:56:28.077Z,1.98
2023-01-13T13:59:30.798Z,1.55
2023-01-13T14:02:36.917Z,1.20
2023-01-13T14:05:38.422Z,1.27
2023-01-13T14:08:46.596Z,1.30
2023-01-13T14:12:15.620Z,1.10
2023-01-13T14:15:33.461Z,1.33
2023-01-13T14:18:48.092Z,1.23
2023-01-13T14:21:49.540Z,1.50
2023-01-13T14:24:55.699Z,2.13
2023-01-13T14:28:00.140Z,1.50
2023-01-13T14:31:02.220Z,1.27
2023-01-13T14:34:28.785Z,1.67
2023-01-13T14:37:41.603Z,7.57
2023-01-13T14:40:45.758Z,2.35
2023-01-13T14:43:48.950Z,1.48
2023-01-13T14:46:53.183Z,1.48
2023-01-13T14:50:02.146Z,6.40
2023-01-13T14:53:05.086Z,2.20
2023-01-13T14:56:39.994Z,2.50
2023-01-13T14:59:48.598Z,1.75
2023-01-13T15:02:53.692Z,1.98
2023-01-13T15:05:57.744Z,1.95
2023-01-13T15:08:59.164Z,1.98
2023-01-13T15:12:15.680Z,1.67
2023-01-13T15:15:39.152Z,1.60
2023-01-13T15:18:41.285Z,2.42
2023-01-13T15:21:42.708Z,2.70
2023-01-13T15:24:44.218Z,1.87
2023-01-13T15:27:50.540Z,2.50
2023-01-13T15:30:55.537Z,3.08
2023-01-13T15:33:58.663Z,2.60
2023-01-13T15:37:00.086Z,2.22
2023-01-13T15:40:01.579Z,2.10
2023-01-13T15:43:21.797Z,1.93
2023-01-13T15:46:38.487Z,1.42
2023-01-13T15:49:46.163Z,1.75
2023-01-13T15:52:47.590Z,1.55
2023-01-13T15:55:55.293Z,2.20
2023-01-13T15:58:57.164Z,2.80
2023-01-13T16:01:58.551Z,2.10
2023-01-13T16:05:00.045Z,2.17
2023-01-13T16:08:01.518Z,2.10
2023-01-13T16:11:03.402Z,2.30
2023-01-13T16:14:04.827Z,2.90
2023-01-13T16:17:21.857Z,2.93
2023-01-13T16:20:23.683Z,3.05
2023-01-13T16:23:25.137Z,2.78
2023-01-13T16:26:32.584Z,2.08
2023-01-13T16:29:34.012Z,1.40
2023-01-13T16:32:35.391Z,0.67
2023-01-13T16:35:36.829Z,0.80
2023-01-13T16:38:58.190Z,0.90
2023-01-13T16:41:59.569Z,1.10
2023-01-13T16:45:08.396Z,1.23
2023-01-13T16:48:19.473Z,0.85
2023-01-13T16:51:22.373Z,0.90
2023-01-13T16:54:23.757Z,0.93
2023-01-13T16:57:25.159Z,0.98
2023-01-13T17:00:26.836Z,1.00
2023-01-13T17:03:29.822Z,2.80
2023-01-13T17:06:39.319Z,4.10
2023-01-13T17:09:40.781Z,4.45
2023-01-13T17:12:42.214Z,3.30
2023-01-13T17:15:45.051Z,3.53
2023-01-13T17:18:48.186Z,3.40
2023-01-13T17:21:51.055Z,3.85
2023-01-13T17:24:52.511Z,3.00
2023-01-13T17:27:53.928Z,2.63
2023-01-13T17:30:55.495Z,1.90
2023-01-13T17:33:57.095Z,2.63
2023-01-13T17:36:58.589Z,2.05
2023-01-13T17:40:00.743Z,2.00
2023-01-13T17:43:02.216Z,1.95
2023-01-13T17:46:08.696Z,3.30
2023-01-13T17:49:15.323Z,4.00
2023-01-13T17:52:16.775Z,3.30
2023-01-13T17:55:18.212Z,4.30
2023-01-13T17:58:21.446Z,5.80
2023-01-13T18:01:22.950Z,5.68
2023-01-13T18:04:28.893Z,6.50
2023-01-13T18:07:30.354Z,4.25
2023-01-13T18:10:33.010Z,4.23
2023-01-13T18:13:35.188Z,4.15
2023-01-13T18:16:39.793Z,3.85
2023-01-13T18:19:59.994Z,4.60
2023-01-13T18:23:20.267Z,4.45
2023-01-13T18:26:40.012Z,4.18
2023-01-13T18:29:42.459Z,3.30
2023-01-13T18:32:43.906Z,3.20
2023-01-13T18:35:45.298Z,3.10
2023-01-13T18:38:48.360Z,2.97
2023-01-13T18:42:08.271Z,2.90
2023-01-13T18:45:10.689Z,3.15
2023-01-13T18:48:12.231Z,3.10
2023-01-13T18:51:13.646Z,3.40
2023-01-13T18:54:15.185Z,3.60
2023-01-13T18:57:16.991Z,4.88
2023-01-13T19:00:20.377Z,4.35
2023-01-13T19:03:29.929Z,10.55
2023-01-13T19:06:33.787Z,6.07
2023-01-13T19:09:35.297Z,5.60
2023-01-13T19:12:36.825Z,4.87
2023-01-13T19:15:38.283Z,5.37
2023-01-13T19:18:41.032Z,2.50
2023-01-13T19:21:42.440Z,3.10
2023-01-13T19:24:43.832Z,5.78
2023-01-13T19:27:45.345Z,4.60
2023-01-13T19:30:46.862Z,5.87
2023-01-13T19:33:48.316Z,4.30
2023-01-13T19:36:51.802Z,4.50
2023-01-13T19:39:53.256Z,4.78
2023-01-13T19:43:13.202Z,4.03
2023-01-13T19:46:14.759Z,3.50
2023-01-13T19:49:16.261Z,6.88
2023-01-13T19:52:17.704Z,13.33
2023-01-13T19:55:19.738Z,5.28
2023-01-13T19:58:23.978Z,7.25
2023-01-13T20:01:31.643Z,4.60
2023-01-13T20:04:39.028Z,3.95
2023-01-13T20:07:40.416Z,3.35
2023-01-13T20:10:45.033Z,3.73
2023-01-13T20:13:46.499Z,3.15
2023-01-13T20:16:47.976Z,3.77
2023-01-13T20:19:49.409Z,2.70
2023-01-13T20:22:51.046Z,4.00
2023-01-13T20:25:52.517Z,3.72
2023-01-13T20:28:54.014Z,2.90
2023-01-13T20:31:55.736Z,3.13
2023-01-13T20:34:57.151Z,3.60
2023-01-13T20:37:58.562Z,3.30
2023-01-13T20:41:01.566Z,2.40
2023-01-13T20:44:02.961Z,3.20
2023-01-13T20:47:05.032Z,2.90
2023-01-13T20:50:07.124Z,3.15
2023-01-13T20:53:08.841Z,2.95
2023-01-13T20:56:10.236Z,3.03
2023-01-13T20:59:11.636Z,3.00
2023-01-13T21:02:15.127Z,2.80
2023-01-13T21:05:16.649Z,2.72
2023-01-13T21:08:18.093Z,2.63
2023-01-13T21:11:39.817Z,2.70
2023-01-13T21:14:59.708Z,2.70
2023-01-13T21:18:19.548Z,2.90
2023-01-13T21:21:21.049Z,2.60
2023-01-13T21:24:23.606Z,2.63
2023-01-13T21:27:25.667Z,3.08
2023-01-13T21:30:27.095Z,3.30
2023-01-13T21:33:29.811Z,3.13
2023-01-13T21:36:31.473Z,2.95
2023-01-13T21:39:32.889Z,2.60
2023-01-13T21:42:53.024Z,3.97
2023-01-13T21:46:12.833Z,2.60
2023-01-13T21:49:14.356Z,2.30
2023-01-13T21:52:16.303Z,2.97
2023-01-13T21:55:29.194Z,3.05
2023-01-13T21:58:30.715Z,2.83
2023-01-13T22:01:32.245Z,3.27
2023-01-13T22:04:33.799Z,2.70
2023-01-13T22:07:36.229Z,3.07
2023-01-13T22:14:09.606Z,2.60
2023-01-13T22:17:14.292Z,3.03
2023-01-13T22:20:16.780Z,2.72
2023-01-13T22:23:20.072Z,2.65
2023-01-13T22:26:21.480Z,3.35
2023-01-13T22:29:22.974Z,4.70
2023-01-13T22:32:24.532Z,3.50
2023-01-13T22:35:25.937Z,2.20
2023-01-13T22:38:27.366Z,2.20
2023-01-13T22:41:28.899Z,1.83
2023-01-13T22:44:30.413Z,2.23
2023-01-13T22:47:33.007Z,2.03
2023-01-13T22:50:34.421Z,2.08
2023-01-13T22:53:36.481Z,2.37
2023-01-13T22:56:38.282Z,1.80
2023-01-13T22:59:39.697Z,3.92
2023-01-13T23:02:41.213Z,2.72
2023-01-13T23:05:42.890Z,2.53
2023-01-13T23:08:45.117Z,2.92
2023-01-13T23:11:47.844Z,2.50
2023-01-13T23:14:49.358Z,2.63
2023-01-13T23:17:51.465Z,2.27
2023-01-13T23:20:52.850Z,2.40
2023-01-13T23:23:54.890Z,3.63
2023-01-13T23:26:56.317Z,2.33
2023-01-13T23:29:57.729Z,1.70
2023-01-13T23:32:59.217Z,2.30
2023-01-13T23:36:03.203Z,2.63
2023-01-13T23:39:04.606Z,2.50
2023-01-13T23:42:06.106Z,2.90
2023-01-13T23:45:08.324Z,2.57
2023-01-13T23:48:09.846Z,2.53
2023-01-13T23:51:13.020Z,2.47
2023-01-13T23:54:14.434Z,2.38
2023-01-13T23:57:15.811Z,2.17
